Quartz — 9HA3900 — position and weather

sailwx.info

Track history (hours):
 
Tides and Currents Weather Stations Pressure Air Temp Water Temp Dewpoint Dewpoint Depression Visibility Wind Speed Wind Dir Waves Ship Positions

Quartz

Last reported at 2018-Jun-18 17:30 UTC. Time now 2018-Jun-18 17:37 UTC.
Position N 44°24' E 037°42'.

Length 183 m; draft 8.2 m.

Type: Tanker. MMSI: 256392000.

Date/timePositionNaut miles runAvg speedWind from/ knotsBaromVisibWave heightAir tempDewpointWater temp
2018-Jun-18 17:30N 44°24' E 037°42'0 0.2
2018-Jun-18 17:00N 44°23' E 037°42'0 0.1
2018-Jun-18 16:29N 44°23' E 037°42'0 0.1
2018-Jun-18 16:00N 44°23' E 037°42'0 0.1
2018-Jun-18 15:30N 44°23' E 037°42'0 0.1
2018-Jun-18 15:00N 44°23' E 037°42'0 0.3
2018-Jun-18 14:30N 44°24' E 037°42'0 0.2
2018-Jun-18 14:00N 44°24' E 037°42'0 0.1
2018-Jun-18 13:30N 44°24' E 037°42'0 0.1
2018-Jun-18 13:00N 44°24' E 037°43'0 0.1
2018-Jun-18 12:30N 44°24' E 037°43'1 1.7
2018-Jun-18 12:01N 44°24' E 037°44'4 7.8
2018-Jun-18 11:29N 44°24' E 037°49'1 2.1
2018-Jun-18 11:01N 44°23' E 037°51'0 0.3
2018-Jun-18 10:30N 44°23' E 037°51'0 0.3
2018-Jun-18 10:01N 44°23' E 037°50'0 0.3
2018-Jun-18 09:30N 44°23' E 037°50'0 0.4
2018-Jun-18 09:00N 44°23' E 037°50'0 0.4
2018-Jun-18 08:30N 44°24' E 037°50'0 0.4
2018-Jun-18 08:00N 44°24' E 037°49'0 0.3
2018-Jun-18 07:30N 44°24' E 037°49'0 0.3
2018-Jun-18 07:00N 44°24' E 037°49'0 0.3
2018-Jun-18 06:30N 44°24' E 037°49'0 0.3
2018-Jun-18 06:00N 44°24' E 037°49'0 0.3
2018-Jun-18 05:31N 44°24' E 037°49'0 0.3
2018-Jun-18 05:01N 44°24' E 037°48'0 0.3
2018-Jun-18 04:31N 44°24' E 037°48'0 0.4
2018-Jun-18 04:00N 44°24' E 037°48'0 0.4
2018-Jun-18 03:30N 44°24' E 037°48'0 0.4
2018-Jun-18 03:00N 44°24' E 037°47'0 0.4
2018-Jun-18 02:31N 44°24' E 037°47'0 0.4
2018-Jun-18 02:01N 44°24' E 037°47'0 0.3
2018-Jun-18 01:30N 44°24' E 037°47'0 0.2
2018-Jun-18 01:01N 44°24' E 037°47'0 0.2
2018-Jun-18 00:31N 44°23' E 037°47'0 0.3
2018-Jun-18 00:01N 44°23' E 037°47'0 0.4
2018-Jun-17 23:30N 44°23' E 037°47'0 0.4
2018-Jun-17 23:00N 44°23' E 037°47'0 0.4
2018-Jun-17 22:30N 44°23' E 037°47'0 0.3
2018-Jun-17 22:00N 44°23' E 037°47'0 0.3
2018-Jun-17 21:30N 44°23' E 037°47'0 0.3
2018-Jun-17 21:00N 44°22' E 037°47'0 0.3
2018-Jun-17 20:30N 44°22' E 037°47'0 0.2
2018-Jun-17 20:00N 44°22' E 037°48'0 0.2
2018-Jun-17 19:30N 44°22' E 037°48'0 0.2
2018-Jun-17 19:00N 44°23' E 037°48'0 0.3
2018-Jun-17 18:30N 44°23' E 037°48'0 0.3
2018-Jun-17 18:00N 44°23' E 037°48'0 0.3
2018-Jun-17 17:31N 44°23' E 037°48'0 0.4
2018-Jun-17 17:00N 44°23' E 037°48'0 0.5
2018-Jun-17 16:30N 44°23' E 037°48'0 0.4
2018-Jun-17 16:00N 44°23' E 037°48'0 0.5
2018-Jun-17 15:31N 44°24' E 037°47'0 0.3
2018-Jun-17 15:00N 44°24' E 037°47'0 0.3
2018-Jun-17 14:30N 44°24' E 037°47'0 0.3
2018-Jun-17 14:01N 44°24' E 037°47'0 0.2
2018-Jun-17 13:30N 44°24' E 037°47'0 0.6
2018-Jun-17 13:00N 44°24' E 037°47'0 0.9
2018-Jun-17 12:30N 44°25' E 037°46'0 0.5
2018-Jun-17 12:00N 44°24' E 037°46'0 0.5
2018-Jun-17 11:30N 44°24' E 037°45'0 0.6
2018-Jun-17 11:00N 44°24' E 037°45'0 0.6
2018-Jun-17 10:31N 44°24' E 037°45'0 0.6
2018-Jun-17 10:01N 44°24' E 037°45'0 0.7
2018-Jun-17 09:31N 44°23' E 037°44'2 3.7
2018-Jun-17 09:01N 44°22' E 037°45'510.2
2018-Jun-17 08:30N 44°17' E 037°49'510.8
2018-Jun-17 08:00N 44°12' E 037°52'1 2.1
2018-Jun-17 07:28N 44°11' E 037°53'0 0.2
2018-Jun-17 06:59N 44°11' E 037°53'0 0.1
2018-Jun-17 06:30N 44°11' E 037°53'0 0.1
2018-Jun-17 05:56N 44°11' E 037°53'0 0.1
2018-Jun-17 05:28N 44°11' E 037°53'0 0.3
2018-Jun-17 04:08N 44°11' E 037°53'0 0.5
2018-Jun-17 03:48N 44°11' E 037°53'0 0.6
2018-Jun-17 03:27N 44°11' E 037°54'0 0.6
2018-Jun-17 02:53N 44°11' E 037°54'2 0.8
2018-Jun-17 00:41N 44°12' E 037°56'0 1.0
2018-Jun-17 00:28N 44°12' E 037°56'1 0.9
2018-Jun-16 23:37N 44°12' E 037°57'0 0.8
2018-Jun-16 23:30N 44°13' E 037°57'1 0.7
2018-Jun-16 22:38N 44°13' E 037°57'0 0.6
2018-Jun-16 22:29N 44°13' E 037°57'0 0.7
2018-Jun-16 22:00N 44°14' E 037°57'0 0.6
2018-Jun-16 21:30N 44°14' E 037°57'0 0.6
2018-Jun-16 21:01N 44°14' E 037°57'0 0.7
2018-Jun-16 20:30N 44°14' E 037°57'0 0.8
2018-Jun-16 20:00N 44°15' E 037°56'0 0.8
2018-Jun-16 19:30N 44°15' E 037°56'0 0.8
2018-Jun-16 19:01N 44°15' E 037°56'0 0.7
2018-Jun-16 18:31N 44°16' E 037°56'0 0.3
2018-Jun-16 18:00N 44°16' E 037°56'1 1.3
2018-Jun-16 17:30N 44°16' E 037°55'0 0.3
2018-Jun-16 16:51N 44°16' E 037°55'0 0.2
2018-Jun-16 15:14N 44°16' E 037°54'0 0.1
2018-Jun-16 14:58N 44°16' E 037°54'0 0.2
2018-Jun-16 14:25N 44°16' E 037°54'0 0.3
2018-Jun-16 14:00N 44°16' E 037°54'0 0.2
2018-Jun-16 13:30N 44°16' E 037°54'0 0.2
2018-Jun-16 13:00N 44°16' E 037°54'0 0.3
2018-Jun-16 12:30N 44°15' E 037°54'0 0.4
2018-Jun-16 12:00N 44°15' E 037°55'0 0.4
2018-Jun-16 11:31N 44°15' E 037°55'0 0.4
2018-Jun-16 11:00N 44°15' E 037°55'0 0.3
2018-Jun-16 10:30N 44°15' E 037°55'0 0.2
2018-Jun-16 10:00N 44°15' E 037°55'0 0.3
2018-Jun-16 09:30N 44°16' E 037°56'0 0.4
2018-Jun-16 09:00N 44°16' E 037°56'0 0.4
2018-Jun-16 08:30N 44°16' E 037°56'0 0.4
2018-Jun-16 08:00N 44°16' E 037°56'0 0.5
2018-Jun-16 07:30N 44°16' E 037°56'0 0.5
2018-Jun-16 07:00N 44°17' E 037°56'0 0.5
2018-Jun-16 06:30N 44°17' E 037°56'0 0.6
2018-Jun-16 06:01N 44°17' E 037°56'0 0.7
2018-Jun-16 05:31N 44°17' E 037°55'0 0.7
2018-Jun-16 05:00N 44°18' E 037°55'0 0.7
2018-Jun-16 04:31N 44°18' E 037°55'0 0.7
2018-Jun-16 04:00N 44°18' E 037°55'0 0.7
2018-Jun-16 03:30N 44°19' E 037°54'0 0.8
2018-Jun-16 03:00N 44°19' E 037°54'0 0.9
2018-Jun-16 02:30N 44°19' E 037°54'0 0.9
2018-Jun-16 02:00N 44°19' E 037°53'0 0.9
2018-Jun-16 01:29N 44°20' E 037°52'0 0.9
2018-Jun-16 01:01N 44°20' E 037°52'0 0.9
2018-Jun-16 00:30N 44°20' E 037°51'0 0.9
2018-Jun-16 00:00N 44°20' E 037°51'0 0.9
2018-Jun-15 23:30N 44°20' E 037°50'0 0.8
2018-Jun-15 23:01N 44°20' E 037°50'0 0.8
2018-Jun-15 22:30N 44°20' E 037°49'0 0.7
2018-Jun-15 22:00N 44°19' E 037°49'0 0.8
2018-Jun-15 21:31N 44°19' E 037°48'0 0.8
2018-Jun-15 21:00N 44°19' E 037°48'0 0.7
2018-Jun-15 20:30N 44°19' E 037°47'0 0.6
2018-Jun-15 20:00N 44°19' E 037°47'0 0.6
2018-Jun-15 19:30N 44°19' E 037°46'0 0.6
2018-Jun-15 19:00N 44°19' E 037°46'0 0.5
2018-Jun-15 18:30N 44°19' E 037°46'0 0.3
2018-Jun-15 18:00N 44°19' E 037°45'0 0.2
2018-Jun-15 17:30N 44°19' E 037°45'0 0.1
2018-Jun-15 17:00N 44°19' E 037°45'0 0.2
2018-Jun-15 16:30N 44°19' E 037°45'0 0.4
2018-Jun-15 15:59N 44°19' E 037°45'0 0.6
2018-Jun-15 15:30N 44°19' E 037°46'0 0.6
2018-Jun-15 15:00N 44°20' E 037°46'0 0.7
2018-Jun-15 14:30N 44°20' E 037°46'0 0.8
2018-Jun-15 14:00N 44°21' E 037°46'0 0.8
2018-Jun-15 13:30N 44°21' E 037°46'0 0.9
2018-Jun-15 13:00N 44°21' E 037°46'0 0.9
2018-Jun-15 12:30N 44°22' E 037°46'0 0.9
2018-Jun-15 12:00N 44°22' E 037°45'0 0.8
2018-Jun-15 11:30N 44°23' E 037°45'0 0.9
2018-Jun-15 11:00N 44°23' E 037°45'0 0.8
2018-Jun-15 10:30N 44°23' E 037°44'0 0.9
2018-Jun-15 10:00N 44°23' E 037°44'0 0.8
2018-Jun-15 09:30N 44°23' E 037°43'0 0.9
2018-Jun-15 09:00N 44°23' E 037°42'0 0.8
2018-Jun-15 08:30N 44°23' E 037°42'0 0.8
2018-Jun-15 08:01N 44°23' E 037°41'0 0.8
2018-Jun-15 07:30N 44°23' E 037°41'0 0.8
2018-Jun-15 07:01N 44°23' E 037°40'0 0.9
2018-Jun-15 06:30N 44°23' E 037°40'1 2.8
2018-Jun-15 06:00N 44°22' E 037°38'3 6.3
2018-Jun-15 05:30N 44°23' E 037°34'0 0.3
2018-Jun-15 05:00N 44°23' E 037°34'0 0.7
2018-Jun-15 04:31N 44°23' E 037°34'0 0.6
2018-Jun-15 04:00N 44°23' E 037°34'0 0.6
2018-Jun-15 03:30N 44°22' E 037°34'1 1.2
2018-Jun-15 03:01N 44°23' E 037°33'4 7.2
2018-Jun-15 02:30N 44°26' E 037°30'3 5.6
2018-Jun-15 02:01N 44°28' E 037°29'1 1.1
2018-Jun-15 01:31N 44°28' E 037°29'0 0.9
2018-Jun-15 01:00N 44°27' E 037°29'0 0.9
2018-Jun-15 00:30N 44°27' E 037°30'0 0.9
2018-Jun-15 00:00N 44°27' E 037°30'0 0.9
2018-Jun-14 23:30N 44°27' E 037°31'0 0.9
2018-Jun-14 23:00N 44°26' E 037°31'0 0.8
2018-Jun-14 22:31N 44°26' E 037°32'0 0.5
2018-Jun-14 22:00N 44°26' E 037°32'0 0.4
2018-Jun-14 21:30N 44°26' E 037°32'0 0.4
2018-Jun-14 21:00N 44°26' E 037°33'0 0.4
2018-Jun-14 20:30N 44°26' E 037°33'0 0.4
2018-Jun-14 20:00N 44°26' E 037°33'0 0.4
2018-Jun-14 19:30N 44°26' E 037°33'0 0.4
2018-Jun-14 19:00N 44°26' E 037°33'0 0.4
2018-Jun-14 18:30N 44°27' E 037°33'0 0.3
2018-Jun-14 18:00N 44°27' E 037°33'0 0.3
2018-Jun-14 17:31N 44°27' E 037°33'0 0.4
2018-Jun-14 17:00N 44°27' E 037°32'0 0.4
2018-Jun-14 16:31N 44°27' E 037°32'0 0.5
2018-Jun-14 16:01N 44°27' E 037°32'0 0.5
2018-Jun-14 15:30N 44°27' E 037°31'0 0.6
2018-Jun-14 15:01N 44°27' E 037°31'0 0.5
2018-Jun-14 14:31N 44°27' E 037°31'0 0.5
2018-Jun-14 14:00N 44°27' E 037°30'0 0.5
2018-Jun-14 13:30N 44°27' E 037°30'0 0.5
2018-Jun-14 13:00N 44°27' E 037°30'0 0.5
2018-Jun-14 12:31N 44°27' E 037°29'0 0.6
2018-Jun-14 12:01N 44°27' E 037°29'0 0.6
2018-Jun-14 11:31N 44°27' E 037°29'0 0.7
2018-Jun-14 11:00N 44°26' E 037°29'0 0.7
2018-Jun-14 10:30N 44°26' E 037°29'0 0.6
2018-Jun-14 10:00N 44°26' E 037°29'0 0.6
2018-Jun-14 09:31N 44°25' E 037°29'0 0.7
2018-Jun-14 09:01N 44°25' E 037°29'0 0.8
2018-Jun-14 08:30N 44°25' E 037°29'0 0.8
2018-Jun-14 08:00N 44°24' E 037°29'0 0.7
2018-Jun-14 07:31N 44°24' E 037°30'0 0.6
2018-Jun-14 07:01N 44°24' E 037°30'0 0.7
2018-Jun-14 06:31N 44°23' E 037°30'0 0.7
2018-Jun-14 06:00N 44°23' E 037°30'0 0.7
2018-Jun-14 05:30N 44°23' E 037°31'0 0.6
2018-Jun-14 05:00N 44°23' E 037°31'0 0.6
2018-Jun-14 04:30N 44°22' E 037°31'0 0.6
2018-Jun-14 04:00N 44°22' E 037°31'0 0.5
2018-Jun-14 03:31N 44°22' E 037°32'0 0.4
2018-Jun-14 03:00N 44°22' E 037°32'0 0.5
2018-Jun-14 02:30N 44°22' E 037°32'0 0.5
2018-Jun-14 02:00N 44°22' E 037°33'0 0.5
2018-Jun-14 01:30N 44°22' E 037°33'0 0.5
2018-Jun-14 01:00N 44°22' E 037°33'0 0.4
2018-Jun-14 00:31N 44°22' E 037°34'0 0.4
2018-Jun-14 00:00N 44°22' E 037°34'0 0.3
2018-Jun-13 23:30N 44°22' E 037°34'0 0.3
2018-Jun-13 23:00N 44°22' E 037°34'0 0.2
2018-Jun-13 22:30N 44°22' E 037°34'0 0.2
2018-Jun-13 22:01N 44°22' E 037°35'0 0.7
2018-Jun-13 21:31N 44°22' E 037°35'2 3.2
2018-Jun-13 21:01N 44°23' E 037°37'0 0.8
2018-Jun-13 20:30N 44°23' E 037°36'0 0.3
2018-Jun-13 20:00N 44°23' E 037°36'0 0.4
2018-Jun-13 19:30N 44°24' E 037°36'0 0.4
2018-Jun-13 19:00N 44°24' E 037°36'0 0.4
2018-Jun-13 18:31N 44°24' E 037°36'0 0.3
2018-Jun-13 18:00N 44°24' E 037°36'0 0.3
2018-Jun-13 17:31N 44°24' E 037°35'0 0.3
2018-Jun-13 17:00N 44°24' E 037°35'0 0.3
2018-Jun-13 16:30N 44°24' E 037°35'0 0.3
2018-Jun-13 16:00N 44°24' E 037°35'0 0.3
2018-Jun-13 15:31N 44°24' E 037°35'0 0.3
2018-Jun-13 15:01N 44°24' E 037°34'0 0.3
2018-Jun-13 14:30N 44°24' E 037°34'0 0.2
2018-Jun-13 14:00N 44°24' E 037°34'0 0.3
2018-Jun-13 13:30N 44°24' E 037°34'0 0.3
2018-Jun-13 13:01N 44°24' E 037°34'0 0.3
2018-Jun-13 12:31N 44°24' E 037°34'0 0.3
2018-Jun-13 12:01N 44°24' E 037°33'0 0.3
2018-Jun-13 11:31N 44°24' E 037°33'0 0.2
2018-Jun-13 11:00N 44°24' E 037°33'0 0.3
2018-Jun-13 10:30N 44°24' E 037°33'0 0.3
2018-Jun-13 10:00N 44°24' E 037°33'0 0.3
2018-Jun-13 09:30N 44°24' E 037°33'0 0.3
2018-Jun-13 08:58N 44°24' E 037°33'0 0.3
2018-Jun-13 08:31N 44°23' E 037°33'0 0.3
2018-Jun-13 08:00N 44°23' E 037°33'0 0.2
2018-Jun-13 07:31N 44°23' E 037°33'0 0.2
2018-Jun-13 06:58N 44°23' E 037°33'0 0.2
2018-Jun-13 06:30N 44°23' E 037°33'0 0.1
2018-Jun-13 06:01N 44°23' E 037°33'0 0.1
2018-Jun-13 05:29N 44°23' E 037°33'0 0.2
2018-Jun-13 05:00N 44°23' E 037°34'0 0.2
2018-Jun-13 04:31N 44°23' E 037°34'0 0.1
2018-Jun-13 04:00N 44°23' E 037°34'0 0.1
2018-Jun-13 03:30N 44°23' E 037°34'0 0.2
2018-Jun-13 03:00N 44°23' E 037°34'0 0.3
2018-Jun-13 02:31N 44°23' E 037°34'0 0.3
2018-Jun-13 02:00N 44°22' E 037°34'0 0.2
2018-Jun-13 01:30N 44°22' E 037°34'0 0.2
2018-Jun-13 01:00N 44°22' E 037°34'0 0.2
2018-Jun-13 00:30N 44°22' E 037°34'0 0.3
2018-Jun-13 00:00N 44°22' E 037°34'0 0.2
2018-Jun-12 23:30N 44°22' E 037°34'0 0.2
2018-Jun-12 23:01N 44°22' E 037°34'0 0.2
2018-Jun-12 22:30N 44°22' E 037°34'0 0.2
2018-Jun-12 22:00N 44°22' E 037°33'0 0.1
2018-Jun-12 21:30N 44°22' E 037°33'0 0.0
2018-Jun-12 21:00N 44°22' E 037°33'0 0.1
2018-Jun-12 20:30N 44°22' E 037°33'0 0.0
2018-Jun-12 20:00N 44°22' E 037°34'0 0.1
2018-Jun-12 19:30N 44°22' E 037°34'0 0.2
2018-Jun-12 19:00N 44°22' E 037°34'0 0.1
2018-Jun-12 18:31N 44°22' E 037°34'0 0.1
2018-Jun-12 18:00N 44°22' E 037°34'0 0.0
2018-Jun-12 17:31N 44°22' E 037°34'0 0.0
2018-Jun-12 17:00N 44°22' E 037°34'0 0.1
2018-Jun-12 16:31N 44°22' E 037°34'0 0.1
2018-Jun-12 16:00N 44°22' E 037°34'0 0.1
2018-Jun-12 15:31N 44°22' E 037°34'0 0.2
2018-Jun-12 15:00N 44°22' E 037°34'0 0.2
2018-Jun-12 14:30N 44°22' E 037°33'0 0.3
2018-Jun-12 14:00N 44°22' E 037°33'0 0.3
2018-Jun-12 13:30N 44°22' E 037°33'0 0.4
2018-Jun-12 13:00N 44°21' E 037°33'0 0.4
2018-Jun-12 12:30N 44°21' E 037°33'0 0.3
2018-Jun-12 12:00N 44°21' E 037°33'0 0.2
2018-Jun-12 11:30N 44°21' E 037°32'0 0.2
2018-Jun-12 11:00N 44°21' E 037°32'0 0.1
2018-Jun-12 10:30N 44°21' E 037°32'0 0.1
2018-Jun-12 10:00N 44°21' E 037°32'0 0.2
2018-Jun-12 09:30N 44°21' E 037°32'0 0.2
2018-Jun-12 09:00N 44°21' E 037°32'0 0.2
2018-Jun-12 08:30N 44°21' E 037°32'0 0.2
2018-Jun-12 08:00N 44°21' E 037°32'0 0.1
2018-Jun-12 07:30N 44°21' E 037°32'0 0.1
2018-Jun-12 07:00N 44°21' E 037°32'0 0.1
2018-Jun-12 06:30N 44°21' E 037°32'0 0.0
2018-Jun-12 06:01N 44°21' E 037°32'0 0.0
2018-Jun-12 05:30N 44°21' E 037°32'0 0.1
2018-Jun-12 05:00N 44°21' E 037°32'0 0.1
2018-Jun-12 04:30N 44°21' E 037°32'0 0.1
2018-Jun-12 04:00N 44°21' E 037°32'0 0.1
2018-Jun-12 03:30N 44°21' E 037°32'0 0.2
2018-Jun-12 03:01N 44°21' E 037°32'0 0.1
2018-Jun-12 02:30N 44°21' E 037°32'0 0.1
2018-Jun-12 02:01N 44°21' E 037°32'0 0.1
2018-Jun-12 01:30N 44°21' E 037°32'0 0.1
2018-Jun-12 01:00N 44°21' E 037°32'0 0.3
2018-Jun-12 00:31N 44°21' E 037°33'0 0.4
2018-Jun-12 00:00N 44°21' E 037°33'0 0.6
2018-Jun-11 23:30N 44°21' E 037°33'0 0.5
2018-Jun-11 23:00N 44°21' E 037°33'0 0.6
2018-Jun-11 22:31N 44°21' E 037°34'0 0.7
2018-Jun-11 22:01N 44°20' E 037°34'0 0.7
2018-Jun-11 21:30N 44°20' E 037°35'0 0.7
2018-Jun-11 21:01N 44°20' E 037°35'0 0.7
2018-Jun-11 20:31N 44°20' E 037°36'0 0.6
2018-Jun-11 20:01N 44°20' E 037°36'0 0.6
2018-Jun-11 19:30N 44°20' E 037°37'0 0.6
2018-Jun-11 19:01N 44°21' E 037°37'0 0.5
2018-Jun-11 18:31N 44°21' E 037°37'0 0.6
2018-Jun-11 18:01N 44°21' E 037°37'0 0.5
2018-Jun-11 17:30N 44°21' E 037°38'0 0.5
2018-Jun-11 17:00N 44°21' E 037°38'0 0.4
2018-Jun-11 16:30N 44°22' E 037°38'0 0.4
2018-Jun-11 16:00N 44°22' E 037°37'0 0.5
2018-Jun-11 15:30N 44°22' E 037°37'0 0.5
2018-Jun-11 15:00N 44°22' E 037°37'0 0.4
2018-Jun-11 14:30N 44°22' E 037°37'0 0.4
2018-Jun-11 14:00N 44°23' E 037°37'0 0.3
2018-Jun-11 13:30N 44°23' E 037°37'0 0.4
2018-Jun-11 13:01N 44°23' E 037°37'0 0.4
2018-Jun-11 12:30N 44°23' E 037°37'0 0.3
2018-Jun-11 12:00N 44°23' E 037°37'0 0.4
2018-Jun-11 11:30N 44°23' E 037°36'0 0.4
2018-Jun-11 11:00N 44°23' E 037°36'0 0.4
2018-Jun-11 10:31N 44°24' E 037°36'0 0.3
2018-Jun-11 10:00N 44°24' E 037°36'0 0.3
2018-Jun-11 09:30N 44°24' E 037°36'0 0.2
2018-Jun-11 09:00N 44°24' E 037°36'0 0.2
2018-Jun-11 08:31N 44°24' E 037°36'0 0.3
2018-Jun-11 08:00N 44°24' E 037°36'0 0.3
2018-Jun-11 07:30N 44°24' E 037°37'0 0.4
2018-Jun-11 07:00N 44°25' E 037°37'0 0.3
2018-Jun-11 06:31N 44°25' E 037°37'0 0.2
2018-Jun-11 06:00N 44°25' E 037°37'0 0.0
2018-Jun-11 05:31N 44°25' E 037°37'0 0.4
2018-Jun-11 05:00N 44°25' E 037°37'2 4.3
2018-Jun-11 04:31N 44°25' E 037°34'510.8
2018-Jun-11 04:00N 44°23' E 037°27'3 6.8
2018-Jun-11 03:30N 44°22' E 037°22'1 1.5
2018-Jun-11 03:00N 44°22' E 037°22'0 1.0
2018-Jun-11 02:30N 44°22' E 037°23'0 1.0
2018-Jun-11 02:00N 44°21' E 037°23'1 1.1
2018-Jun-11 01:30N 44°21' E 037°24'1 1.1
2018-Jun-11 01:01N 44°21' E 037°25'1 1.1
2018-Jun-11 00:30N 44°21' E 037°25'1 1.0
2018-Jun-11 00:01N 44°20' E 037°26'1 1.1
2018-Jun-10 23:27N 44°20' E 037°27'0 1.0
2018-Jun-10 23:00N 44°20' E 037°28'0 0.9
2018-Jun-10 22:28N 44°20' E 037°28'1 1.0
2018-Jun-10 21:58N 44°20' E 037°29'0 0.9
2018-Jun-10 21:28N 44°21' E 037°30'0 0.9
2018-Jun-10 21:00N 44°21' E 037°30'0 0.8
2018-Jun-10 20:29N 44°21' E 037°31'0 0.6
2018-Jun-10 19:56N 44°21' E 037°31'0 0.5
2018-Jun-10 19:30N 44°21' E 037°31'0 0.5
2018-Jun-10 19:01N 44°21' E 037°31'0 0.5
2018-Jun-10 18:31N 44°22' E 037°32'0 0.5
2018-Jun-10 18:00N 44°22' E 037°32'0 0.5
2018-Jun-10 17:31N 44°22' E 037°32'0 0.5
2018-Jun-10 16:56N 44°22' E 037°32'0 0.5
2018-Jun-10 16:26N 44°23' E 037°32'1 0.5
2018-Jun-10 14:51N 44°23' E 037°31'0 0.5
2018-Jun-10 14:29N 44°23' E 037°31'0 0.4
2018-Jun-10 13:30N 44°24' E 037°31'0 0.4
2018-Jun-10 13:00N 44°24' E 037°30'0 0.4
2018-Jun-10 12:29N 44°24' E 037°30'0 0.3
2018-Jun-10 12:00N 44°24' E 037°30'0 0.2
2018-Jun-10 11:30N 44°23' E 037°30'0 0.3
2018-Jun-10 11:00N 44°23' E 037°30'0 0.2
2018-Jun-10 10:28N 44°23' E 037°30'0 0.1
2018-Jun-10 09:57N 44°23' E 037°30'0 0.1
2018-Jun-10 09:30N 44°23' E 037°30'0 0.2
2018-Jun-10 08:57N 44°23' E 037°30'0 0.2
2018-Jun-10 08:30N 44°23' E 037°30'0 0.3
2018-Jun-10 08:00N 44°23' E 037°30'0 0.4
2018-Jun-10 07:30N 44°23' E 037°31'0 0.4
2018-Jun-10 07:00N 44°23' E 037°31'0 0.4
2018-Jun-10 06:26N 44°23' E 037°31'0 0.4
2018-Jun-10 06:00N 44°23' E 037°31'0 0.4
2018-Jun-10 05:30N 44°23' E 037°32'0 0.4
2018-Jun-10 05:00N 44°23' E 037°32'0 0.3
2018-Jun-10 04:29N 44°23' E 037°32'0 0.3
2018-Jun-10 04:00N 44°24' E 037°32'0 0.3
2018-Jun-10 03:30N 44°24' E 037°32'0 0.2
2018-Jun-10 03:00N 44°24' E 037°32'0 0.2
2018-Jun-10 02:23N 44°24' E 037°33'0 0.1
2018-Jun-10 02:00N 44°24' E 037°33'0 0.1
2018-Jun-10 01:30N 44°24' E 037°33'0 0.1
2018-Jun-10 01:00N 44°24' E 037°33'0 0.1
2018-Jun-10 00:30N 44°24' E 037°32'0 0.2
2018-Jun-10 00:00N 44°24' E 037°32'0 0.1
2018-Jun-09 23:30N 44°24' E 037°32'0 0.1
2018-Jun-09 23:00N 44°24' E 037°32'0 0.1
2018-Jun-09 22:30N 44°24' E 037°32'0 0.2
2018-Jun-09 22:00N 44°24' E 037°32'0 0.3
2018-Jun-09 21:30N 44°24' E 037°32'0 0.4
2018-Jun-09 21:00N 44°23' E 037°33'0 0.3
2018-Jun-09 20:30N 44°23' E 037°33'0 0.3
2018-Jun-09 20:00N 44°23' E 037°33'0 0.3
2018-Jun-09 19:30N 44°23' E 037°33'0 0.4
2018-Jun-09 19:00N 44°23' E 037°33'0 0.3
2018-Jun-09 18:30N 44°23' E 037°33'0 0.3
2018-Jun-09 18:00N 44°23' E 037°33'0 0.2
2018-Jun-09 17:30N 44°22' E 037°33'0 0.2
2018-Jun-09 17:00N 44°22' E 037°33'0 0.2
2018-Jun-09 16:30N 44°22' E 037°33'0 0.1
2018-Jun-09 16:00N 44°22' E 037°33'0 0.1
2018-Jun-09 15:00N 44°22' E 037°33'0 0.1
2018-Jun-09 14:30N 44°22' E 037°34'0 0.1
2018-Jun-09 14:00N 44°22' E 037°34'0 0.0
2018-Jun-09 13:30N 44°22' E 037°34'0 0.1
2018-Jun-09 13:00N 44°22' E 037°34'0 0.1
2018-Jun-09 12:30N 44°22' E 037°34'0 0.0
2018-Jun-09 12:00N 44°22' E 037°34'0 0.1
2018-Jun-09 11:30N 44°22' E 037°34'0 0.2
2018-Jun-09 11:00N 44°22' E 037°34'0 0.2
2018-Jun-09 10:30N 44°22' E 037°34'0 0.3
2018-Jun-09 10:00N 44°22' E 037°34'0 0.3
2018-Jun-09 09:30N 44°22' E 037°34'0 0.3
2018-Jun-09 09:00N 44°22' E 037°34'0 0.3
2018-Jun-09 08:20N 44°22' E 037°34'0 0.3
2018-Jun-09 07:59N 44°21' E 037°34'0 0.3
2018-Jun-09 07:30N 44°21' E 037°35'0 0.2
2018-Jun-09 07:00N 44°21' E 037°35'0 0.3
2018-Jun-09 06:30N 44°21' E 037°35'0 0.3
2018-Jun-09 06:00N 44°21' E 037°35'0 0.2
2018-Jun-09 05:30N 44°21' E 037°35'0 0.0
2018-Jun-09 05:00N 44°21' E 037°35'0 0.1
2018-Jun-09 04:29N 44°21' E 037°35'0 0.1
2018-Jun-09 04:00N 44°21' E 037°35'0 0.2
2018-Jun-09 03:30N 44°21' E 037°35'0 0.2
2018-Jun-09 03:00N 44°21' E 037°35'0 0.7
2018-Jun-09 02:30N 44°21' E 037°34'3 5.1
2018-Jun-09 02:00N 44°22' E 037°31'510.7
2018-Jun-09 01:30N 44°22' E 037°24'612.7
2018-Jun-09 00:59N 44°19' E 037°16'1612.7
2018-Jun-08 23:44N 44°12' E 036°56'1812.3
2018-Jun-08 22:14N 44°05' E 036°32'311.9
2018-Jun-08 22:00N 44°04' E 036°29'1111.9
2018-Jun-08 21:05N 43°59' E 036°15'111.9
2018-Jun-08 21:00N 43°59' E 036°13'  
Track history (hours):
 
Tides and Currents Weather Stations Pressure Air Temp Water Temp Dewpoint Dewpoint Depression Visibility Wind Speed Wind Dir Waves Ship Positions

Quartz

Last reported at 2018-Jun-18 17:30 UTC. Time now 2018-Jun-18 17:37 UTC.
Position N 44°24' E 037°42'.

Length 183 m; draft 8.2 m.

Type: Tanker. MMSI: 256392000.

Date/timePositionNaut miles runAvg speedWind from/ knotsBaromVisibWave heightAir tempDewpointWater temp
2018-Jun-18 17:30N 44°24' E 037°42'0 0.2
2018-Jun-18 17:00N 44°23' E 037°42'0 0.1
2018-Jun-18 16:29N 44°23' E 037°42'0 0.1
2018-Jun-18 16:00N 44°23' E 037°42'0 0.1
2018-Jun-18 15:30N 44°23' E 037°42'0 0.1
2018-Jun-18 15:00N 44°23' E 037°42'0 0.3
2018-Jun-18 14:30N 44°24' E 037°42'0 0.2
2018-Jun-18 14:00N 44°24' E 037°42'0 0.1
2018-Jun-18 13:30N 44°24' E 037°42'0 0.1
2018-Jun-18 13:00N 44°24' E 037°43'0 0.1
2018-Jun-18 12:30N 44°24' E 037°43'1 1.7
2018-Jun-18 12:01N 44°24' E 037°44'4 7.8
2018-Jun-18 11:29N 44°24' E 037°49'1 2.1
2018-Jun-18 11:01N 44°23' E 037°51'0 0.3
2018-Jun-18 10:30N 44°23' E 037°51'0 0.3
2018-Jun-18 10:01N 44°23' E 037°50'0 0.3
2018-Jun-18 09:30N 44°23' E 037°50'0 0.4
2018-Jun-18 09:00N 44°23' E 037°50'0 0.4
2018-Jun-18 08:30N 44°24' E 037°50'0 0.4
2018-Jun-18 08:00N 44°24' E 037°49'0 0.3
2018-Jun-18 07:30N 44°24' E 037°49'0 0.3
2018-Jun-18 07:00N 44°24' E 037°49'0 0.3
2018-Jun-18 06:30N 44°24' E 037°49'0 0.3
2018-Jun-18 06:00N 44°24' E 037°49'0 0.3
2018-Jun-18 05:31N 44°24' E 037°49'0 0.3
2018-Jun-18 05:01N 44°24' E 037°48'0 0.3
2018-Jun-18 04:31N 44°24' E 037°48'0 0.4
2018-Jun-18 04:00N 44°24' E 037°48'0 0.4
2018-Jun-18 03:30N 44°24' E 037°48'0 0.4
2018-Jun-18 03:00N 44°24' E 037°47'0 0.4
2018-Jun-18 02:31N 44°24' E 037°47'0 0.4
2018-Jun-18 02:01N 44°24' E 037°47'0 0.3
2018-Jun-18 01:30N 44°24' E 037°47'0 0.2
2018-Jun-18 01:01N 44°24' E 037°47'0 0.2
2018-Jun-18 00:31N 44°23' E 037°47'0 0.3
2018-Jun-18 00:01N 44°23' E 037°47'0 0.4
2018-Jun-17 23:30N 44°23' E 037°47'0 0.4
2018-Jun-17 23:00N 44°23' E 037°47'0 0.4
2018-Jun-17 22:30N 44°23' E 037°47'0 0.3
2018-Jun-17 22:00N 44°23' E 037°47'0 0.3
2018-Jun-17 21:30N 44°23' E 037°47'0 0.3
2018-Jun-17 21:00N 44°22' E 037°47'0 0.3
2018-Jun-17 20:30N 44°22' E 037°47'0 0.2
2018-Jun-17 20:00N 44°22' E 037°48'0 0.2
2018-Jun-17 19:30N 44°22' E 037°48'0 0.2
2018-Jun-17 19:00N 44°23' E 037°48'0 0.3
2018-Jun-17 18:30N 44°23' E 037°48'0 0.3
2018-Jun-17 18:00N 44°23' E 037°48'0 0.3
2018-Jun-17 17:31N 44°23' E 037°48'0 0.4
2018-Jun-17 17:00N 44°23' E 037°48'0 0.5
2018-Jun-17 16:30N 44°23' E 037°48'0 0.4
2018-Jun-17 16:00N 44°23' E 037°48'0 0.5
2018-Jun-17 15:31N 44°24' E 037°47'0 0.3
2018-Jun-17 15:00N 44°24' E 037°47'0 0.3
2018-Jun-17 14:30N 44°24' E 037°47'0 0.3
2018-Jun-17 14:01N 44°24' E 037°47'0 0.2
2018-Jun-17 13:30N 44°24' E 037°47'0 0.6
2018-Jun-17 13:00N 44°24' E 037°47'0 0.9
2018-Jun-17 12:30N 44°25' E 037°46'0 0.5
2018-Jun-17 12:00N 44°24' E 037°46'0 0.5
2018-Jun-17 11:30N 44°24' E 037°45'0 0.6
2018-Jun-17 11:00N 44°24' E 037°45'0 0.6
2018-Jun-17 10:31N 44°24' E 037°45'0 0.6
2018-Jun-17 10:01N 44°24' E 037°45'0 0.7
2018-Jun-17 09:31N 44°23' E 037°44'2 3.7
2018-Jun-17 09:01N 44°22' E 037°45'510.2
2018-Jun-17 08:30N 44°17' E 037°49'510.8
2018-Jun-17 08:00N 44°12' E 037°52'1 2.1
2018-Jun-17 07:28N 44°11' E 037°53'0 0.2
2018-Jun-17 06:59N 44°11' E 037°53'0 0.1
2018-Jun-17 06:30N 44°11' E 037°53'0 0.1
2018-Jun-17 05:56N 44°11' E 037°53'0 0.1
2018-Jun-17 05:28N 44°11' E 037°53'0 0.3
2018-Jun-17 04:08N 44°11' E 037°53'0 0.5
2018-Jun-17 03:48N 44°11' E 037°53'0 0.6
2018-Jun-17 03:27N 44°11' E 037°54'0 0.6
2018-Jun-17 02:53N 44°11' E 037°54'2 0.8
2018-Jun-17 00:41N 44°12' E 037°56'0 1.0
2018-Jun-17 00:28N 44°12' E 037°56'1 0.9
2018-Jun-16 23:37N 44°12' E 037°57'0 0.8
2018-Jun-16 23:30N 44°13' E 037°57'1 0.7
2018-Jun-16 22:38N 44°13' E 037°57'0 0.6
2018-Jun-16 22:29N 44°13' E 037°57'0 0.7
2018-Jun-16 22:00N 44°14' E 037°57'0 0.6
2018-Jun-16 21:30N 44°14' E 037°57'0 0.6
2018-Jun-16 21:01N 44°14' E 037°57'0 0.7
2018-Jun-16 20:30N 44°14' E 037°57'0 0.8
2018-Jun-16 20:00N 44°15' E 037°56'0 0.8
2018-Jun-16 19:30N 44°15' E 037°56'0 0.8
2018-Jun-16 19:01N 44°15' E 037°56'0 0.7
2018-Jun-16 18:31N 44°16' E 037°56'0 0.3
2018-Jun-16 18:00N 44°16' E 037°56'1 1.3
2018-Jun-16 17:30N 44°16' E 037°55'0 0.3
2018-Jun-16 16:51N 44°16' E 037°55'0 0.2
2018-Jun-16 15:14N 44°16' E 037°54'0 0.1
2018-Jun-16 14:58N 44°16' E 037°54'0 0.2
2018-Jun-16 14:25N 44°16' E 037°54'0 0.3
2018-Jun-16 14:00N 44°16' E 037°54'0 0.2
2018-Jun-16 13:30N 44°16' E 037°54'0 0.2
2018-Jun-16 13:00N 44°16' E 037°54'0 0.3
2018-Jun-16 12:30N 44°15' E 037°54'0 0.4
2018-Jun-16 12:00N 44°15' E 037°55'0 0.4
2018-Jun-16 11:31N 44°15' E 037°55'0 0.4
2018-Jun-16 11:00N 44°15' E 037°55'0 0.3
2018-Jun-16 10:30N 44°15' E 037°55'0 0.2
2018-Jun-16 10:00N 44°15' E 037°55'0 0.3
2018-Jun-16 09:30N 44°16' E 037°56'0 0.4
2018-Jun-16 09:00N 44°16' E 037°56'0 0.4
2018-Jun-16 08:30N 44°16' E 037°56'0 0.4
2018-Jun-16 08:00N 44°16' E 037°56'0 0.5
2018-Jun-16 07:30N 44°16' E 037°56'0 0.5
2018-Jun-16 07:00N 44°17' E 037°56'0 0.5
2018-Jun-16 06:30N 44°17' E 037°56'0 0.6
2018-Jun-16 06:01N 44°17' E 037°56'0 0.7
2018-Jun-16 05:31N 44°17' E 037°55'0 0.7
2018-Jun-16 05:00N 44°18' E 037°55'0 0.7
2018-Jun-16 04:31N 44°18' E 037°55'0 0.7
2018-Jun-16 04:00N 44°18' E 037°55'0 0.7
2018-Jun-16 03:30N 44°19' E 037°54'0 0.8
2018-Jun-16 03:00N 44°19' E 037°54'0 0.9
2018-Jun-16 02:30N 44°19' E 037°54'0 0.9
2018-Jun-16 02:00N 44°19' E 037°53'0 0.9
2018-Jun-16 01:29N 44°20' E 037°52'0 0.9
2018-Jun-16 01:01N 44°20' E 037°52'0 0.9
2018-Jun-16 00:30N 44°20' E 037°51'0 0.9
2018-Jun-16 00:00N 44°20' E 037°51'0 0.9
2018-Jun-15 23:30N 44°20' E 037°50'0 0.8
2018-Jun-15 23:01N 44°20' E 037°50'0 0.8
2018-Jun-15 22:30N 44°20' E 037°49'0 0.7
2018-Jun-15 22:00N 44°19' E 037°49'0 0.8
2018-Jun-15 21:31N 44°19' E 037°48'0 0.8
2018-Jun-15 21:00N 44°19' E 037°48'0 0.7
2018-Jun-15 20:30N 44°19' E 037°47'0 0.6
2018-Jun-15 20:00N 44°19' E 037°47'0 0.6
2018-Jun-15 19:30N 44°19' E 037°46'0 0.6
2018-Jun-15 19:00N 44°19' E 037°46'0 0.5
2018-Jun-15 18:30N 44°19' E 037°46'0 0.3
2018-Jun-15 18:00N 44°19' E 037°45'0 0.2
2018-Jun-15 17:30N 44°19' E 037°45'0 0.1
2018-Jun-15 17:00N 44°19' E 037°45'0 0.2
2018-Jun-15 16:30N 44°19' E 037°45'0 0.4
2018-Jun-15 15:59N 44°19' E 037°45'0 0.6
2018-Jun-15 15:30N 44°19' E 037°46'0 0.6
2018-Jun-15 15:00N 44°20' E 037°46'0 0.7
2018-Jun-15 14:30N 44°20' E 037°46'0 0.8
2018-Jun-15 14:00N 44°21' E 037°46'0 0.8
2018-Jun-15 13:30N 44°21' E 037°46'0 0.9
2018-Jun-15 13:00N 44°21' E 037°46'0 0.9
2018-Jun-15 12:30N 44°22' E 037°46'0 0.9
2018-Jun-15 12:00N 44°22' E 037°45'0 0.8
2018-Jun-15 11:30N 44°23' E 037°45'0 0.9
2018-Jun-15 11:00N 44°23' E 037°45'0 0.8
2018-Jun-15 10:30N 44°23' E 037°44'0 0.9
2018-Jun-15 10:00N 44°23' E 037°44'0 0.8
2018-Jun-15 09:30N 44°23' E 037°43'0 0.9
2018-Jun-15 09:00N 44°23' E 037°42'0 0.8
2018-Jun-15 08:30N 44°23' E 037°42'0 0.8
2018-Jun-15 08:01N 44°23' E 037°41'0 0.8
2018-Jun-15 07:30N 44°23' E 037°41'0 0.8
2018-Jun-15 07:01N 44°23' E 037°40'0 0.9
2018-Jun-15 06:30N 44°23' E 037°40'1 2.8
2018-Jun-15 06:00N 44°22' E 037°38'3 6.3
2018-Jun-15 05:30N 44°23' E 037°34'0 0.3
2018-Jun-15 05:00N 44°23' E 037°34'0 0.7
2018-Jun-15 04:31N 44°23' E 037°34'0 0.6
2018-Jun-15 04:00N 44°23' E 037°34'0 0.6
2018-Jun-15 03:30N 44°22' E 037°34'1 1.2
2018-Jun-15 03:01N 44°23' E 037°33'4 7.2
2018-Jun-15 02:30N 44°26' E 037°30'3 5.6
2018-Jun-15 02:01N 44°28' E 037°29'1 1.1
2018-Jun-15 01:31N 44°28' E 037°29'0 0.9
2018-Jun-15 01:00N 44°27' E 037°29'0 0.9
2018-Jun-15 00:30N 44°27' E 037°30'0 0.9
2018-Jun-15 00:00N 44°27' E 037°30'0 0.9
2018-Jun-14 23:30N 44°27' E 037°31'0 0.9
2018-Jun-14 23:00N 44°26' E 037°31'0 0.8
2018-Jun-14 22:31N 44°26' E 037°32'0 0.5
2018-Jun-14 22:00N 44°26' E 037°32'0 0.4
2018-Jun-14 21:30N 44°26' E 037°32'0 0.4
2018-Jun-14 21:00N 44°26' E 037°33'0 0.4
2018-Jun-14 20:30N 44°26' E 037°33'0 0.4
2018-Jun-14 20:00N 44°26' E 037°33'0 0.4
2018-Jun-14 19:30N 44°26' E 037°33'0 0.4
2018-Jun-14 19:00N 44°26' E 037°33'0 0.4
2018-Jun-14 18:30N 44°27' E 037°33'0 0.3
2018-Jun-14 18:00N 44°27' E 037°33'0 0.3
2018-Jun-14 17:31N 44°27' E 037°33'0 0.4
2018-Jun-14 17:00N 44°27' E 037°32'0 0.4
2018-Jun-14 16:31N 44°27' E 037°32'0 0.5
2018-Jun-14 16:01N 44°27' E 037°32'0 0.5
2018-Jun-14 15:30N 44°27' E 037°31'0 0.6
2018-Jun-14 15:01N 44°27' E 037°31'0 0.5
2018-Jun-14 14:31N 44°27' E 037°31'0 0.5
2018-Jun-14 14:00N 44°27' E 037°30'0 0.5
2018-Jun-14 13:30N 44°27' E 037°30'0 0.5
2018-Jun-14 13:00N 44°27' E 037°30'0 0.5
2018-Jun-14 12:31N 44°27' E 037°29'0 0.6
2018-Jun-14 12:01N 44°27' E 037°29'0 0.6
2018-Jun-14 11:31N 44°27' E 037°29'0 0.7
2018-Jun-14 11:00N 44°26' E 037°29'0 0.7
2018-Jun-14 10:30N 44°26' E 037°29'0 0.6
2018-Jun-14 10:00N 44°26' E 037°29'0 0.6
2018-Jun-14 09:31N 44°25' E 037°29'0 0.7
2018-Jun-14 09:01N 44°25' E 037°29'0 0.8
2018-Jun-14 08:30N 44°25' E 037°29'0 0.8
2018-Jun-14 08:00N 44°24' E 037°29'0 0.7
2018-Jun-14 07:31N 44°24' E 037°30'0 0.6
2018-Jun-14 07:01N 44°24' E 037°30'0 0.7
2018-Jun-14 06:31N 44°23' E 037°30'0 0.7
2018-Jun-14 06:00N 44°23' E 037°30'0 0.7
2018-Jun-14 05:30N 44°23' E 037°31'0 0.6
2018-Jun-14 05:00N 44°23' E 037°31'0 0.6
2018-Jun-14 04:30N 44°22' E 037°31'0 0.6
2018-Jun-14 04:00N 44°22' E 037°31'0 0.5
2018-Jun-14 03:31N 44°22' E 037°32'0 0.4
2018-Jun-14 03:00N 44°22' E 037°32'0 0.5
2018-Jun-14 02:30N 44°22' E 037°32'0 0.5
2018-Jun-14 02:00N 44°22' E 037°33'0 0.5
2018-Jun-14 01:30N 44°22' E 037°33'0 0.5
2018-Jun-14 01:00N 44°22' E 037°33'0 0.4
2018-Jun-14 00:31N 44°22' E 037°34'0 0.4
2018-Jun-14 00:00N 44°22' E 037°34'0 0.3
2018-Jun-13 23:30N 44°22' E 037°34'0 0.3
2018-Jun-13 23:00N 44°22' E 037°34'0 0.2
2018-Jun-13 22:30N 44°22' E 037°34'0 0.2
2018-Jun-13 22:01N 44°22' E 037°35'0 0.7
2018-Jun-13 21:31N 44°22' E 037°35'2 3.2
2018-Jun-13 21:01N 44°23' E 037°37'0 0.8
2018-Jun-13 20:30N 44°23' E 037°36'0 0.3
2018-Jun-13 20:00N 44°23' E 037°36'0 0.4
2018-Jun-13 19:30N 44°24' E 037°36'0 0.4
2018-Jun-13 19:00N 44°24' E 037°36'0 0.4
2018-Jun-13 18:31N 44°24' E 037°36'0 0.3
2018-Jun-13 18:00N 44°24' E 037°36'0 0.3
2018-Jun-13 17:31N 44°24' E 037°35'0 0.3
2018-Jun-13 17:00N 44°24' E 037°35'0 0.3
2018-Jun-13 16:30N 44°24' E 037°35'0 0.3
2018-Jun-13 16:00N 44°24' E 037°35'0 0.3
2018-Jun-13 15:31N 44°24' E 037°35'0 0.3
2018-Jun-13 15:01N 44°24' E 037°34'0 0.3
2018-Jun-13 14:30N 44°24' E 037°34'0 0.2
2018-Jun-13 14:00N 44°24' E 037°34'0 0.3
2018-Jun-13 13:30N 44°24' E 037°34'0 0.3
2018-Jun-13 13:01N 44°24' E 037°34'0 0.3
2018-Jun-13 12:31N 44°24' E 037°34'0 0.3
2018-Jun-13 12:01N 44°24' E 037°33'0 0.3
2018-Jun-13 11:31N 44°24' E 037°33'0 0.2
2018-Jun-13 11:00N 44°24' E 037°33'0 0.3
2018-Jun-13 10:30N 44°24' E 037°33'0 0.3
2018-Jun-13 10:00N 44°24' E 037°33'0 0.3
2018-Jun-13 09:30N 44°24' E 037°33'0 0.3
2018-Jun-13 08:58N 44°24' E 037°33'0 0.3
2018-Jun-13 08:31N 44°23' E 037°33'0 0.3
2018-Jun-13 08:00N 44°23' E 037°33'0 0.2
2018-Jun-13 07:31N 44°23' E 037°33'0 0.2
2018-Jun-13 06:58N 44°23' E 037°33'0 0.2
2018-Jun-13 06:30N 44°23' E 037°33'0 0.1
2018-Jun-13 06:01N 44°23' E 037°33'0 0.1
2018-Jun-13 05:29N 44°23' E 037°33'0 0.2
2018-Jun-13 05:00N 44°23' E 037°34'0 0.2
2018-Jun-13 04:31N 44°23' E 037°34'0 0.1
2018-Jun-13 04:00N 44°23' E 037°34'0 0.1
2018-Jun-13 03:30N 44°23' E 037°34'0 0.2
2018-Jun-13 03:00N 44°23' E 037°34'0 0.3
2018-Jun-13 02:31N 44°23' E 037°34'0 0.3
2018-Jun-13 02:00N 44°22' E 037°34'0 0.2
2018-Jun-13 01:30N 44°22' E 037°34'0 0.2
2018-Jun-13 01:00N 44°22' E 037°34'0 0.2
2018-Jun-13 00:30N 44°22' E 037°34'0 0.3
2018-Jun-13 00:00N 44°22' E 037°34'0 0.2
2018-Jun-12 23:30N 44°22' E 037°34'0 0.2
2018-Jun-12 23:01N 44°22' E 037°34'0 0.2
2018-Jun-12 22:30N 44°22' E 037°34'0 0.2
2018-Jun-12 22:00N 44°22' E 037°33'0 0.1
2018-Jun-12 21:30N 44°22' E 037°33'0 0.0
2018-Jun-12 21:00N 44°22' E 037°33'0 0.1
2018-Jun-12 20:30N 44°22' E 037°33'0 0.0
2018-Jun-12 20:00N 44°22' E 037°34'0 0.1
2018-Jun-12 19:30N 44°22' E 037°34'0 0.2
2018-Jun-12 19:00N 44°22' E 037°34'0 0.1
2018-Jun-12 18:31N 44°22' E 037°34'0 0.1
2018-Jun-12 18:00N 44°22' E 037°34'0 0.0
2018-Jun-12 17:31N 44°22' E 037°34'0 0.0
2018-Jun-12 17:00N 44°22' E 037°34'0 0.1
2018-Jun-12 16:31N 44°22' E 037°34'0 0.1
2018-Jun-12 16:00N 44°22' E 037°34'0 0.1
2018-Jun-12 15:31N 44°22' E 037°34'0 0.2
2018-Jun-12 15:00N 44°22' E 037°34'0 0.2
2018-Jun-12 14:30N 44°22' E 037°33'0 0.3
2018-Jun-12 14:00N 44°22' E 037°33'0 0.3
2018-Jun-12 13:30N 44°22' E 037°33'0 0.4
2018-Jun-12 13:00N 44°21' E 037°33'0 0.4
2018-Jun-12 12:30N 44°21' E 037°33'0 0.3
2018-Jun-12 12:00N 44°21' E 037°33'0 0.2
2018-Jun-12 11:30N 44°21' E 037°32'0 0.2
2018-Jun-12 11:00N 44°21' E 037°32'0 0.1
2018-Jun-12 10:30N 44°21' E 037°32'0 0.1
2018-Jun-12 10:00N 44°21' E 037°32'0 0.2
2018-Jun-12 09:30N 44°21' E 037°32'0 0.2
2018-Jun-12 09:00N 44°21' E 037°32'0 0.2
2018-Jun-12 08:30N 44°21' E 037°32'0 0.2
2018-Jun-12 08:00N 44°21' E 037°32'0 0.1
2018-Jun-12 07:30N 44°21' E 037°32'0 0.1
2018-Jun-12 07:00N 44°21' E 037°32'0 0.1
2018-Jun-12 06:30N 44°21' E 037°32'0 0.0
2018-Jun-12 06:01N 44°21' E 037°32'0 0.0
2018-Jun-12 05:30N 44°21' E 037°32'0 0.1
2018-Jun-12 05:00N 44°21' E 037°32'0 0.1
2018-Jun-12 04:30N 44°21' E 037°32'0 0.1
2018-Jun-12 04:00N 44°21' E 037°32'0 0.1
2018-Jun-12 03:30N 44°21' E 037°32'0 0.2
2018-Jun-12 03:01N 44°21' E 037°32'0 0.1
2018-Jun-12 02:30N 44°21' E 037°32'0 0.1
2018-Jun-12 02:01N 44°21' E 037°32'0 0.1
2018-Jun-12 01:30N 44°21' E 037°32'0 0.1
2018-Jun-12 01:00N 44°21' E 037°32'0 0.3
2018-Jun-12 00:31N 44°21' E 037°33'0 0.4
2018-Jun-12 00:00N 44°21' E 037°33'0 0.6
2018-Jun-11 23:30N 44°21' E 037°33'0 0.5
2018-Jun-11 23:00N 44°21' E 037°33'0 0.6
2018-Jun-11 22:31N 44°21' E 037°34'0 0.7
2018-Jun-11 22:01N 44°20' E 037°34'0 0.7
2018-Jun-11 21:30N 44°20' E 037°35'0 0.7
2018-Jun-11 21:01N 44°20' E 037°35'0 0.7
2018-Jun-11 20:31N 44°20' E 037°36'0 0.6
2018-Jun-11 20:01N 44°20' E 037°36'0 0.6
2018-Jun-11 19:30N 44°20' E 037°37'0 0.6
2018-Jun-11 19:01N 44°21' E 037°37'0 0.5
2018-Jun-11 18:31N 44°21' E 037°37'0 0.6
2018-Jun-11 18:01N 44°21' E 037°37'0 0.5
2018-Jun-11 17:30N 44°21' E 037°38'0 0.5
2018-Jun-11 17:00N 44°21' E 037°38'0 0.4
2018-Jun-11 16:30N 44°22' E 037°38'0 0.4
2018-Jun-11 16:00N 44°22' E 037°37'0 0.5
2018-Jun-11 15:30N 44°22' E 037°37'0 0.5
2018-Jun-11 15:00N 44°22' E 037°37'0 0.4
2018-Jun-11 14:30N 44°22' E 037°37'0 0.4
2018-Jun-11 14:00N 44°23' E 037°37'0 0.3
2018-Jun-11 13:30N 44°23' E 037°37'0 0.4
2018-Jun-11 13:01N 44°23' E 037°37'0 0.4
2018-Jun-11 12:30N 44°23' E 037°37'0 0.3
2018-Jun-11 12:00N 44°23' E 037°37'0 0.4
2018-Jun-11 11:30N 44°23' E 037°36'0 0.4
2018-Jun-11 11:00N 44°23' E 037°36'0 0.4
2018-Jun-11 10:31N 44°24' E 037°36'0 0.3
2018-Jun-11 10:00N 44°24' E 037°36'0 0.3
2018-Jun-11 09:30N 44°24' E 037°36'0 0.2
2018-Jun-11 09:00N 44°24' E 037°36'0 0.2
2018-Jun-11 08:31N 44°24' E 037°36'0 0.3
2018-Jun-11 08:00N 44°24' E 037°36'0 0.3
2018-Jun-11 07:30N 44°24' E 037°37'0 0.4
2018-Jun-11 07:00N 44°25' E 037°37'0 0.3
2018-Jun-11 06:31N 44°25' E 037°37'0 0.2
2018-Jun-11 06:00N 44°25' E 037°37'0 0.0
2018-Jun-11 05:31N 44°25' E 037°37'0 0.4
2018-Jun-11 05:00N 44°25' E 037°37'2 4.3
2018-Jun-11 04:31N 44°25' E 037°34'510.8
2018-Jun-11 04:00N 44°23' E 037°27'3 6.8
2018-Jun-11 03:30N 44°22' E 037°22'1 1.5
2018-Jun-11 03:00N 44°22' E 037°22'0 1.0
2018-Jun-11 02:30N 44°22' E 037°23'0 1.0
2018-Jun-11 02:00N 44°21' E 037°23'1 1.1
2018-Jun-11 01:30N 44°21' E 037°24'1 1.1
2018-Jun-11 01:01N 44°21' E 037°25'1 1.1
2018-Jun-11 00:30N 44°21' E 037°25'1 1.0
2018-Jun-11 00:01N 44°20' E 037°26'1 1.1
2018-Jun-10 23:27N 44°20' E 037°27'0 1.0
2018-Jun-10 23:00N 44°20' E 037°28'0 0.9
2018-Jun-10 22:28N 44°20' E 037°28'1 1.0
2018-Jun-10 21:58N 44°20' E 037°29'0 0.9
2018-Jun-10 21:28N 44°21' E 037°30'0 0.9
2018-Jun-10 21:00N 44°21' E 037°30'0 0.8
2018-Jun-10 20:29N 44°21' E 037°31'0 0.6
2018-Jun-10 19:56N 44°21' E 037°31'0 0.5
2018-Jun-10 19:30N 44°21' E 037°31'0 0.5
2018-Jun-10 19:01N 44°21' E 037°31'0 0.5
2018-Jun-10 18:31N 44°22' E 037°32'0 0.5
2018-Jun-10 18:00N 44°22' E 037°32'0 0.5
2018-Jun-10 17:31N 44°22' E 037°32'0 0.5
2018-Jun-10 16:56N 44°22' E 037°32'0 0.5
2018-Jun-10 16:26N 44°23' E 037°32'1 0.5
2018-Jun-10 14:51N 44°23' E 037°31'0 0.5
2018-Jun-10 14:29N 44°23' E 037°31'0 0.4
2018-Jun-10 13:30N 44°24' E 037°31'0 0.4
2018-Jun-10 13:00N 44°24' E 037°30'0 0.4
2018-Jun-10 12:29N 44°24' E 037°30'0 0.3
2018-Jun-10 12:00N 44°24' E 037°30'0 0.2
2018-Jun-10 11:30N 44°23' E 037°30'0 0.3
2018-Jun-10 11:00N 44°23' E 037°30'0 0.2
2018-Jun-10 10:28N 44°23' E 037°30'0 0.1
2018-Jun-10 09:57N 44°23' E 037°30'0 0.1
2018-Jun-10 09:30N 44°23' E 037°30'0 0.2
2018-Jun-10 08:57N 44°23' E 037°30'0 0.2
2018-Jun-10 08:30N 44°23' E 037°30'0 0.3
2018-Jun-10 08:00N 44°23' E 037°30'0 0.4
2018-Jun-10 07:30N 44°23' E 037°31'0 0.4
2018-Jun-10 07:00N 44°23' E 037°31'0 0.4
2018-Jun-10 06:26N 44°23' E 037°31'0 0.4
2018-Jun-10 06:00N 44°23' E 037°31'0 0.4
2018-Jun-10 05:30N 44°23' E 037°32'0 0.4
2018-Jun-10 05:00N 44°23' E 037°32'0 0.3
2018-Jun-10 04:29N 44°23' E 037°32'0 0.3
2018-Jun-10 04:00N 44°24' E 037°32'0 0.3
2018-Jun-10 03:30N 44°24' E 037°32'0 0.2
2018-Jun-10 03:00N 44°24' E 037°32'0 0.2
2018-Jun-10 02:23N 44°24' E 037°33'0 0.1
2018-Jun-10 02:00N 44°24' E 037°33'0 0.1
2018-Jun-10 01:30N 44°24' E 037°33'0 0.1
2018-Jun-10 01:00N 44°24' E 037°33'0 0.1
2018-Jun-10 00:30N 44°24' E 037°32'0 0.2
2018-Jun-10 00:00N 44°24' E 037°32'0 0.1
2018-Jun-09 23:30N 44°24' E 037°32'0 0.1
2018-Jun-09 23:00N 44°24' E 037°32'0 0.1
2018-Jun-09 22:30N 44°24' E 037°32'0 0.2
2018-Jun-09 22:00N 44°24' E 037°32'0 0.3
2018-Jun-09 21:30N 44°24' E 037°32'0 0.4
2018-Jun-09 21:00N 44°23' E 037°33'0 0.3
2018-Jun-09 20:30N 44°23' E 037°33'0 0.3
2018-Jun-09 20:00N 44°23' E 037°33'0 0.3
2018-Jun-09 19:30N 44°23' E 037°33'0 0.4
2018-Jun-09 19:00N 44°23' E 037°33'0 0.3
2018-Jun-09 18:30N 44°23' E 037°33'0 0.3
2018-Jun-09 18:00N 44°23' E 037°33'0 0.2
2018-Jun-09 17:30N 44°22' E 037°33'0 0.2
2018-Jun-09 17:00N 44°22' E 037°33'0 0.2
2018-Jun-09 16:30N 44°22' E 037°33'0 0.1
2018-Jun-09 16:00N 44°22' E 037°33'0 0.1
2018-Jun-09 15:00N 44°22' E 037°33'0 0.1
2018-Jun-09 14:30N 44°22' E 037°34'0 0.1
2018-Jun-09 14:00N 44°22' E 037°34'0 0.0
2018-Jun-09 13:30N 44°22' E 037°34'0 0.1
2018-Jun-09 13:00N 44°22' E 037°34'0 0.1
2018-Jun-09 12:30N 44°22' E 037°34'0 0.0
2018-Jun-09 12:00N 44°22' E 037°34'0 0.1
2018-Jun-09 11:30N 44°22' E 037°34'0 0.2
2018-Jun-09 11:00N 44°22' E 037°34'0 0.2
2018-Jun-09 10:30N 44°22' E 037°34'0 0.3
2018-Jun-09 10:00N 44°22' E 037°34'0 0.3
2018-Jun-09 09:30N 44°22' E 037°34'0 0.3
2018-Jun-09 09:00N 44°22' E 037°34'0 0.3
2018-Jun-09 08:20N 44°22' E 037°34'0 0.3
2018-Jun-09 07:59N 44°21' E 037°34'0 0.3
2018-Jun-09 07:30N 44°21' E 037°35'0 0.2
2018-Jun-09 07:00N 44°21' E 037°35'0 0.3
2018-Jun-09 06:30N 44°21' E 037°35'0 0.3
2018-Jun-09 06:00N 44°21' E 037°35'0 0.2
2018-Jun-09 05:30N 44°21' E 037°35'0 0.0
2018-Jun-09 05:00N 44°21' E 037°35'0 0.1
2018-Jun-09 04:29N 44°21' E 037°35'0 0.1
2018-Jun-09 04:00N 44°21' E 037°35'0 0.2
2018-Jun-09 03:30N 44°21' E 037°35'0 0.2
2018-Jun-09 03:00N 44°21' E 037°35'0 0.7
2018-Jun-09 02:30N 44°21' E 037°34'3 5.1
2018-Jun-09 02:00N 44°22' E 037°31'510.7
2018-Jun-09 01:30N 44°22' E 037°24'612.7
2018-Jun-09 00:59N 44°19' E 037°16'1612.7
2018-Jun-08 23:44N 44°12' E 036°56'1812.3
2018-Jun-08 22:14N 44°05' E 036°32'311.9
2018-Jun-08 22:00N 44°04' E 036°29'1111.9
2018-Jun-08 21:05N 43°59' E 036°15'111.9
2018-Jun-08 21:00N 43°59' E 036°13'  

Dump ship's entire track history